Time;durP1;ratioP1;P1;durP2;ratioP2;P2;SDS_P1;SDS_P2;PMS_P1;PMS_P2;Temp;Humidity;BMP_temperature;BMP_pressure;BME280_temperature;BME280_humidity;BME280_pressure;Samples;Min_cycle;Max_cycle;Signal;HPM_P1;HPM_P2
2022/05/17 00:02:12;;;;;;;43.65;16.58;;;;;;;15.64;59.06;95204.53;5029423;28;20048;-76
2022/05/17 00:04:38;;;;;;;61.53;24.25;;;;;;;15.57;58.79;95208.09;5029925;28;20027;-76
2022/05/17 00:07:04;;;;;;;61.55;24.20;;;;;;;15.54;59.30;95207.84;5070877;23;20042;-75
2022/05/17 00:09:29;;;;;;;61.88;24.90;;;;;;;15.49;59.28;95207.81;5018370;28;20037;-76
2022/05/17 00:11:56;;;;;;;54.30;22.95;;;;;;;15.39;59.64;95208.50;5012047;28;20030;-75
2022/05/17 00:14:22;;;;;;;42.47;18.80;;;;;;;15.36;59.60;95203.78;4994623;28;20052;-76
2022/05/17 00:16:48;;;;;;;44.35;15.68;;;;;;;15.32;59.91;95205.34;4977492;28;20026;-76
2022/05/17 00:19:16;;;;;;;40.42;16.90;;;;;;;15.29;60.18;95206.63;4992369;28;20111;-76
2022/05/17 00:21:42;;;;;;;28.45;13.10;;;;;;;15.25;60.46;95204.75;5009294;28;20125;-76
2022/05/17 00:24:08;;;;;;;14.68;8.82;;;;;;;15.28;59.89;95206.84;5011651;28;20476;-76
2022/05/17 00:26:33;;;;;;;16.48;7.75;;;;;;;15.31;58.60;95209.00;4994063;28;20042;-76
2022/05/17 00:31:38;;;;;;;17.85;8.98;;;;;;;15.34;58.54;95202.47;5092498;23;20071;-75
2022/05/17 00:34:04;;;;;;;22.85;8.02;;;;;;;15.35;58.65;95209.28;5033308;28;20031;-75
2022/05/17 00:36:30;;;;;;;34.38;11.27;;;;;;;15.36;59.89;95209.03;5031297;28;20508;-75
2022/05/17 00:38:56;;;;;;;33.20;9.70;;;;;;;15.36;59.02;95206.41;5031716;28;20485;-75
2022/05/17 00:41:21;;;;;;;12.07;6.13;;;;;;;15.36;57.97;95205.63;5029624;28;20033;-75
2022/05/17 00:46:44;;;;;;;9.27;5.10;;;;;;;15.35;56.77;95207.44;5031020;28;20040;-75
2022/05/17 00:49:11;;;;;;;16.83;7.20;;;;;;;15.35;58.21;95204.03;5029511;28;20774;-75
2022/05/17 00:51:36;;;;;;;25.17;9.05;;;;;;;15.35;59.30;95207.44;5028015;28;20021;-76
2022/05/17 00:54:08;;;;;;;16.23;8.88;;;;;;;15.35;59.47;95204.03;5030623;28;20037;-76
2022/05/17 00:56:39;;;;;;;23.75;9.45;;;;;;;15.35;59.55;95198.78;5029398;28;20033;-76
2022/05/17 00:59:04;;;;;;;18.77;8.90;;;;;;;15.30;59.53;95199.56;5029333;28;20509;-76
2022/05/17 01:01:31;;;;;;;23.15;9.02;;;;;;;15.24;59.51;95203.94;5029589;28;20057;-76
2022/05/17 01:04:03;;;;;;;17.55;9.13;;;;;;;15.24;60.05;95197.94;5029054;28;20088;-77
2022/05/17 01:06:32;;;;;;;22.85;8.82;;;;;;;15.17;59.74;95195.53;5045238;28;20030;-76
2022/05/17 01:08:57;;;;;;;17.00;8.55;;;;;;;15.15;59.87;95188.97;5013006;28;20030;-76
2022/05/17 01:11:22;;;;;;;19.25;8.43;;;;;;;15.12;59.88;95190.22;5029207;28;20088;-76
2022/05/17 01:16:32;;;;;;;23.15;9.15;;;;;;;15.04;59.83;95188.09;5015741;28;20099;-76
2022/05/17 01:18:58;;;;;;;28.23;8.60;;;;;;;14.98;60.53;95183.84;5030221;28;20038;-75
2022/05/17 01:21:23;;;;;;;24.70;8.88;;;;;;;14.92;60.43;95182.22;5045646;28;20038;-75
2022/05/17 01:23:49;;;;;;;43.60;9.65;;;;;;;14.89;60.49;95180.09;5030124;28;20044;-75
2022/05/17 01:26:22;;;;;;;24.42;8.68;;;;;;;14.85;60.33;95184.25;5045909;28;20041;-75
2022/05/17 01:28:47;;;;;;;27.02;8.75;;;;;;;14.81;60.44;95183.19;5028190;28;20116;-75
2022/05/17 01:31:13;;;;;;;19.63;7.43;;;;;;;14.73;60.19;95176.56;5045752;28;20440;-75
2022/05/17 01:33:38;;;;;;;12.57;7.53;;;;;;;14.68;60.47;95189.63;5011933;28;20384;-75
2022/05/17 01:36:06;;;;;;;25.38;7.78;;;;;;;14.68;60.76;95184.38;5029792;28;20094;-75
2022/05/17 01:38:32;;;;;;;16.63;8.27;;;;;;;14.60;61.27;95182.19;5029676;28;20022;-75
2022/05/17 01:40:58;;;;;;;21.23;7.38;;;;;;;14.53;61.29;95186.84;5029974;28;20469;-75
2022/05/17 01:43:23;;;;;;;12.65;7.38;;;;;;;14.49;61.21;95185.78;5030088;28;20084;-75
2022/05/17 01:45:49;;;;;;;11.50;7.20;;;;;;;14.49;61.00;95185.78;5029875;28;20033;-75
2022/05/17 01:48:23;;;;;;;15.43;7.18;;;;;;;14.42;61.25;95181.47;5030084;28;20034;-75
2022/05/17 01:50:49;;;;;;;15.00;6.72;;;;;;;14.40;61.40;95182.75;5030051;28;20029;-75
2022/05/17 01:53:14;;;;;;;16.88;6.82;;;;;;;14.34;62.17;95189.78;5029833;28;20366;-75
2022/05/17 01:55:40;;;;;;;18.10;6.70;;;;;;;14.34;62.08;95189.78;5028577;28;20037;-75
2022/05/17 01:58:05;;;;;;;14.48;6.50;;;;;;;14.33;61.92;95193.44;5029284;28;20033;-75
2022/05/17 02:00:31;;;;;;;17.45;7.38;;;;;;;14.31;61.93;95192.06;5028521;28;20065;-76
2022/05/17 02:03:02;;;;;;;12.05;6.35;;;;;;;14.25;62.12;95200.91;5028271;28;20037;-75
2022/05/17 02:05:28;;;;;;;8.70;6.63;;;;;;;14.23;62.49;95189.91;5029548;28;20041;-75
2022/05/17 02:07:53;;;;;;;11.32;6.38;;;;;;;14.20;62.96;95190.41;5011923;28;20114;-75
2022/05/17 02:10:19;;;;;;;13.73;6.10;;;;;;;14.15;63.07;95190.31;5030016;28;20085;-75
2022/05/17 02:12:45;;;;;;;16.67;7.10;;;;;;;14.18;62.57;95201.09;5026617;28;20030;-75
2022/05/17 02:15:11;;;;;;;26.85;7.20;;;;;;;14.22;62.14;95191.72;5069077;22;20170;-76
2022/05/17 02:17:37;;;;;;;14.68;6.50;;;;;;;14.20;62.79;95193.00;5070127;23;20120;-76
2022/05/17 02:20:04;;;;;;;25.88;7.05;;;;;;;14.17;62.41;95196.13;5020230;28;20033;-76
2022/05/17 02:22:30;;;;;;;30.20;7.28;;;;;;;14.13;62.76;95195.78;5020782;28;20038;-75
2022/05/17 02:24:55;;;;;;;29.17;7.95;;;;;;;14.13;62.67;95198.41;5019460;28;20034;-76
2022/05/17 02:27:21;;;;;;;25.13;8.30;;;;;;;14.09;62.58;95202.56;5019328;28;20033;-74
2022/05/17 02:29:46;;;;;;;23.83;9.25;;;;;;;14.05;62.76;95196.22;4977417;28;20617;-76
2022/05/17 02:32:14;;;;;;;17.15;10.20;;;;;;;14.03;62.71;95198.31;5001847;28;20022;-75
2022/05/17 02:34:39;;;;;;;31.10;11.50;;;;;;;14.00;62.55;95188.34;4994809;28;20037;-76
2022/05/17 02:37:05;;;;;;;19.27;10.60;;;;;;;14.01;62.63;95200.38;5017675;28;20410;-75
2022/05/17 02:39:30;;;;;;;24.65;10.48;;;;;;;13.99;62.32;95197.19;5006246;28;20055;-76
2022/05/17 02:41:55;;;;;;;28.95;10.77;;;;;;;13.96;62.63;95197.69;5017844;28;20025;-76
2022/05/17 02:44:21;;;;;;;24.40;9.10;;;;;;;13.92;62.69;95191.38;5005489;28;20640;-76
2022/05/17 02:46:46;;;;;;;29.98;9.13;;;;;;;13.91;62.74;95195.00;5004871;28;20475;-76
2022/05/17 02:49:12;;;;;;;35.60;9.35;;;;;;;13.89;62.75;95197.09;5022989;28;20038;-76
2022/05/17 02:51:38;;;;;;;27.48;11.27;;;;;;;13.88;62.82;95206.75;5004782;28;20037;-77
2022/05/17 02:54:05;;;;;;;43.42;11.88;;;;;;;13.86;62.79;95198.38;5005316;28;20037;-76
2022/05/17 02:56:32;;;;;;;30.05;11.77;;;;;;;13.87;62.85;95199.94;5034426;28;20033;-76
2022/05/17 02:58:57;;;;;;;23.10;11.43;;;;;;;13.79;63.33;95203.75;5017291;28;20092;-76
2022/05/17 03:01:22;;;;;;;28.38;11.10;;;;;;;13.76;63.67;95203.44;5024599;28;20459;-76
2022/05/17 03:03:48;;;;;;;35.67;10.95;;;;;;;13.78;62.98;95202.16;5039655;23;20457;-76
2022/05/17 03:06:13;;;;;;;49.97;12.80;;;;;;;13.75;63.25;95200.03;5032323;28;20087;-76
2022/05/17 03:08:39;;;;;;;39.55;12.02;;;;;;;13.72;63.31;95197.91;5025300;28;20029;-76
2022/05/17 03:11:07;;;;;;;29.08;13.23;;;;;;;13.73;63.40;95199.50;5024197;28;20412;-76
2022/05/17 03:13:33;;;;;;;25.90;12.45;;;;;;;13.76;62.89;95199.00;5029922;28;20025;-76
2022/05/17 03:15:58;;;;;;;31.40;12.15;;;;;;;13.73;63.57;95194.28;5029970;28;20029;-75
2022/05/17 03:18:24;;;;;;;29.25;12.35;;;;;;;13.78;63.56;95201.38;5004685;28;20030;-75
2022/05/17 03:20:49;;;;;;;36.58;11.82;;;;;;;13.86;63.58;95200.19;5004380;28;20034;-75
2022/05/17 03:23:15;;;;;;;45.15;11.68;;;;;;;13.91;63.00;95205.47;5100720;22;20510;-77
2022/05/17 03:25:40;;;;;;;27.73;11.13;;;;;;;13.90;63.46;95196.06;5022458;28;20118;-76
2022/05/17 03:28:06;;;;;;;35.90;10.25;;;;;;;13.98;62.90;95201.63;5031483;28;20030;-76
2022/05/17 03:30:32;;;;;;;27.23;9.80;;;;;;;14.03;62.66;95208.75;5032328;28;20041;-76
2022/05/17 03:33:03;;;;;;;14.60;8.20;;;;;;;14.10;62.55;95204.13;5014235;28;20014;-76
2022/05/17 03:35:28;;;;;;;30.02;9.50;;;;;;;14.15;62.31;95203.38;5006237;28;20052;-76
2022/05/17 03:37:54;;;;;;;24.15;9.18;;;;;;;14.20;61.92;95209.50;5032128;28;20029;-76
2022/05/17 03:40:19;;;;;;;19.25;9.10;;;;;;;14.28;62.08;95210.88;5014430;28;20044;-76
2022/05/17 03:42:45;;;;;;;33.28;10.90;;;;;;;14.34;61.70;95210.69;5031618;28;20033;-77
2022/05/17 03:45:10;;;;;;;21.67;9.68;;;;;;;14.46;61.08;95202.72;5030781;28;20056;-77
2022/05/17 03:47:36;;;;;;;49.28;10.60;;;;;;;14.52;61.08;95206.22;5030813;28;20540;-77
2022/05/17 03:50:03;;;;;;;25.27;10.02;;;;;;;14.60;61.15;95206.53;5014430;28;20029;-76
2022/05/17 03:52:29;;;;;;;29.65;11.60;;;;;;;14.71;61.03;95215.28;5031192;28;20469;-77
2022/05/17 03:54:58;;;;;;;52.22;11.27;;;;;;;14.80;60.64;95208.56;5013701;28;20034;-75
2022/05/17 03:57:26;;;;;;;42.83;10.95;;;;;;;14.92;60.55;95219.66;5031093;28;20944;-76
2022/05/17 03:59:52;;;;;;;44.13;10.90;;;;;;;15.04;60.13;95211.66;5030720;28;20057;-76
2022/05/17 04:02:18;;;;;;;48.70;11.77;;;;;;;15.65;59.36;95204.25;5030316;28;20470;-77
2022/05/17 04:04:43;;;;;;;47.72;12.82;;;;;;;17.78;53.10;95209.16;5030451;28;20033;-76
2022/05/17 04:07:09;;;;;;;50.25;13.88;;;;;;;20.07;46.82;95197.09;5032322;28;20029;-77
2022/05/17 04:09:34;;;;;;;33.20;11.93;;;;;;;22.11;41.46;95200.91;5014601;28;20448;-77
2022/05/17 04:12:00;;;;;;;34.15;11.73;;;;;;;23.99;37.85;95197.69;5030488;28;20416;-77
2022/05/17 04:14:25;;;;;;;53.83;11.13;;;;;;;25.68;34.68;95195.84;5007052;28;20041;-78
2022/05/17 04:16:51;;;;;;;23.80;7.93;;;;;;;26.90;31.14;95196.81;4997861;28;20033;-78
2022/05/17 04:19:16;;;;;;;18.20;7.22;;;;;;;28.02;29.46;95189.63;5034006;28;20026;-77
2022/05/17 04:21:43;;;;;;;26.13;7.72;;;;;;;29.31;27.66;95196.94;5044120;28;20036;-77
2022/05/17 04:24:08;;;;;;;15.75;5.80;;;;;;;30.43;25.39;95197.50;5062042;23;20041;-78
2022/05/17 04:26:33;;;;;;;10.63;4.75;;;;;;;31.51;23.79;95205.91;5027641;28;20117;-74
2022/05/17 04:28:59;;;;;;;16.25;4.60;;;;;;;32.30;22.79;95213.47;5031373;28;20037;-75
2022/05/17 04:31:25;;;;;;;14.05;5.32;;;;;;;33.03;22.38;95215.72;5031521;28;20071;-76
2022/05/17 04:33:50;;;;;;;12.18;5.13;;;;;;;33.97;21.12;95210.22;5029970;28;20099;-75
2022/05/17 04:36:16;;;;;;;12.80;4.65;;;;;;;34.74;20.01;95209.28;5031334;28;20037;-75
2022/05/17 04:38:41;;;;;;;15.95;4.68;;;;;;;35.53;19.03;95221.28;4996929;28;20543;-75
2022/05/17 04:41:06;;;;;;;21.42;5.03;;;;;;;36.31;18.78;95215.22;5029895;28;20033;-76
2022/05/17 04:43:32;;;;;;;17.55;4.75;;;;;;;36.90;17.93;95204.72;5020451;28;20052;-77
2022/05/17 04:45:58;;;;;;;20.80;4.78;;;;;;;37.49;17.15;95205.69;5030496;28;20990;-76
2022/05/17 04:48:26;;;;;;;16.30;4.93;;;;;;;38.09;16.68;95199.13;5013510;28;20034;-74
2022/05/17 04:50:52;;;;;;;27.05;5.57;;;;;;;38.38;16.37;95212.50;5031435;28;20050;-74
2022/05/17 04:53:18;;;;;;;16.52;4.40;;;;;;;39.11;15.25;95216.88;5029862;28;20048;-74
2022/05/17 04:55:43;;;;;;;15.75;4.95;;;;;;;39.86;15.03;95212.00;5031473;28;20030;-76
2022/05/17 04:58:09;;;;;;;24.48;5.40;;;;;;;40.37;14.42;95212.84;5030088;28;20120;-76
2022/05/17 05:00:35;;;;;;;27.77;5.35;;;;;;;40.91;14.11;95209.22;5031628;28;20034;-78
2022/05/17 05:03:01;;;;;;;23.85;5.57;;;;;;;41.59;13.87;95198.47;5028133;28;20125;-76
2022/05/17 05:05:27;;;;;;;25.13;5.20;;;;;;;42.30;12.90;95198.81;5013739;28;20116;-76
2022/05/17 05:07:53;;;;;;;14.40;4.95;;;;;;;42.83;12.40;95194.75;5030892;28;20038;-75
2022/05/17 05:10:18;;;;;;;16.80;5.20;;;;;;;43.19;11.65;95202.00;5049444;28;20021;-76
2022/05/17 05:12:44;;;;;;;25.42;4.97;;;;;;;43.58;11.81;95205.59;5045943;28;20470;-77
2022/05/17 05:15:10;;;;;;;25.27;5.50;;;;;;;43.98;11.21;95201.28;5014672;28;20041;-79
2022/05/17 05:17:36;;;;;;;20.20;5.05;;;;;;;44.33;11.04;95200.59;5033168;28;20125;-79
2022/05/17 05:20:02;;;;;;;17.42;4.47;;;;;;;44.88;10.91;95199.13;5031859;28;20033;-77
2022/05/17 05:22:29;;;;;;;19.70;5.43;;;;;;;45.41;10.43;95201.97;5014961;28;20120;-79
2022/05/17 05:24:55;;;;;;;18.40;4.82;;;;;;;45.70;9.85;95202.44;5035635;28;20104;-78
2022/05/17 05:27:21;;;;;;;22.63;4.50;;;;;;;46.12;9.53;95193.00;5033129;28;20041;-78
2022/05/17 05:29:46;;;;;;;18.38;4.75;;;;;;;45.84;9.56;95194.84;4998838;28;20036;-79
2022/05/17 05:32:12;;;;;;;14.00;4.03;;;;;;;45.74;9.94;95197.56;5032648;28;20037;-79
2022/05/17 05:34:37;;;;;;;10.52;4.72;;;;;;;45.52;9.99;95199.56;5023321;28;20492;-79
2022/05/17 05:37:03;;;;;;;17.98;4.28;;;;;;;45.68;9.79;95201.34;5040884;28;20041;-78
2022/05/17 05:39:29;;;;;;;8.85;3.60;;;;;;;45.76;9.35;95203.38;5035218;28;20579;-79
2022/05/17 05:41:55;;;;;;;7.43;3.85;;;;;;;45.97;9.41;95201.00;5033637;28;20034;-79
2022/05/17 05:44:21;;;;;;;17.52;3.30;;;;;;;46.22;9.69;95200.81;5032863;28;20030;-79
2022/05/17 05:46:46;;;;;;;20.02;3.67;;;;;;;46.60;9.38;95196.91;5016424;28;20032;-79
2022/05/17 05:49:12;;;;;;;14.70;4.32;;;;;;;46.81;9.10;95198.00;5033113;28;20657;-79
2022/05/17 05:51:37;;;;;;;17.27;3.97;;;;;;;46.57;9.10;95195.84;5030127;28;20033;-79
2022/05/17 05:54:03;;;;;;;14.10;4.45;;;;;;;46.14;9.06;95191.31;5034194;28;20034;-79
2022/05/17 05:56:28;;;;;;;15.55;3.53;;;;;;;45.87;9.68;95200.19;5030927;28;20033;-79
2022/05/17 05:58:54;;;;;;;6.38;3.22;;;;;;;45.78;9.63;95198.19;5007304;28;20485;-79
2022/05/17 06:01:19;;;;;;;9.77;3.10;;;;;;;45.57;9.61;95196.25;5016408;28;20610;-79
2022/05/17 06:03:45;;;;;;;14.43;3.30;;;;;;;45.41;9.38;95191.75;5032350;28;20509;-78
2022/05/17 06:06:10;;;;;;;10.77;3.10;;;;;;;45.17;9.45;95199.66;5033269;28;20397;-78
2022/05/17 06:08:56;;;;;;;8.95;2.92;;;;;;;44.76;9.98;95186.22;5032999;28;20038;-78
2022/05/17 06:11:21;;;;;;;13.45;3.33;;;;;;;45.09;9.48;95197.63;5033674;28;20098;-79
2022/05/17 06:13:47;;;;;;;14.40;3.53;;;;;;;45.09;10.17;95187.41;5030638;28;20033;-78
2022/05/17 06:16:13;;;;;;;5.43;2.90;;;;;;;45.05;10.09;95192.25;5032146;28;20108;-78
2022/05/17 06:18:38;;;;;;;10.95;3.50;;;;;;;44.33;10.40;95187.63;5031221;28;20057;-78
2022/05/17 06:21:04;;;;;;;24.10;3.47;;;;;;;43.58;10.54;95194.66;5032271;28;20044;-78
2022/05/17 06:23:29;;;;;;;19.45;4.18;;;;;;;44.28;10.14;95185.47;5030963;28;20095;-78
2022/05/17 06:25:55;;;;;;;14.80;4.22;;;;;;;43.38;11.03;95192.88;5030421;28;20053;-78
2022/05/17 06:28:20;;;;;;;21.30;4.35;;;;;;;43.11;11.21;95189.72;5030653;28;20037;-78
2022/05/17 06:30:46;;;;;;;17.83;4.10;;;;;;;42.43;11.47;95196.16;5031365;28;20029;-78
2022/05/17 06:33:12;;;;;;;9.98;3.83;;;;;;;42.07;11.75;95190.78;5031382;28;20035;-78
2022/05/17 06:35:38;;;;;;;22.70;3.88;;;;;;;41.32;12.46;95192.41;5031297;28;20123;-78
2022/05/17 06:38:04;;;;;;;20.05;3.75;;;;;;;41.47;12.65;95182.75;5004615;28;20034;-78
2022/05/17 06:40:30;;;;;;;17.55;3.58;;;;;;;41.72;12.87;95186.94;5026162;28;20401;-78
2022/05/17 06:42:56;;;;;;;13.70;4.55;;;;;;;41.44;12.73;95178.13;4996975;28;20045;-78
2022/05/17 06:45:21;;;;;;;20.63;4.10;;;;;;;40.72;13.00;95177.97;5034507;28;20040;-78
2022/05/17 06:47:47;;;;;;;17.75;3.88;;;;;;;40.02;13.71;95175.25;5031728;28;20040;-78
2022/05/17 06:50:12;;;;;;;19.73;3.28;;;;;;;39.62;14.12;95172.31;5032449;28;20041;-78
2022/05/17 06:52:44;;;;;;;15.35;3.00;;;;;;;39.23;14.01;95170.09;5027909;28;20048;-79
2022/05/17 06:55:10;;;;;;;14.50;3.40;;;;;;;38.51;15.07;95170.06;5019165;28;20493;-78
2022/05/17 06:57:36;;;;;;;15.27;3.72;;;;;;;38.09;15.69;95165.78;5031345;28;20037;-79
2022/05/17 07:00:05;;;;;;;8.32;3.17;;;;;;;37.86;15.59;95174.47;5029624;28;20032;-78
2022/05/17 07:02:31;;;;;;;11.90;3.40;;;;;;;37.20;15.81;95169.75;5030259;28;20033;-78
2022/05/17 07:04:56;;;;;;;7.65;3.20;;;;;;;36.34;16.48;95171.91;5029879;28;20030;-77
2022/05/17 07:07:21;;;;;;;6.40;3.78;;;;;;;35.81;17.47;95176.50;5028676;28;20386;-77
2022/05/17 07:13:07;;;;;;;18.13;4.13;;;;;;;35.02;17.94;95170.84;5030635;28;20038;-78
2022/05/17 07:15:23;;;;;;;17.15;3.75;;;;;;;33.76;19.26;95173.00;5029409;28;20036;-79
2022/05/17 07:17:49;;;;;;;;;;;;;;;33.17;20.18;95163.09;5030912;28;20045;-78
2022/05/17 07:20:15;;;;;;;8.33;4.10;;;;;;;32.57;20.70;95161.19;5029994;28;19923;-78
2022/05/17 07:22:40;;;;;;;13.27;3.88;;;;;;;32.27;21.46;95152.25;5030328;28;21052;-78
2022/05/17 07:25:06;;;;;;;10.90;4.43;;;;;;;32.18;22.67;95161.34;5030004;28;20512;-77
2022/05/17 07:27:32;;;;;;;19.83;4.30;;;;;;;32.20;21.85;95153.69;5013143;28;20485;-78
2022/05/17 07:29:57;;;;;;;13.20;4.20;;;;;;;32.13;21.74;95156.28;5031592;28;20026;-78
2022/05/17 07:32:22;;;;;;;10.00;3.75;;;;;;;32.11;22.18;95147.81;4999589;28;20048;-78
2022/05/17 07:35:00;;;;;;;16.65;4.15;;;;;;;32.20;22.55;95153.69;5034308;28;20087;-78
2022/05/17 07:37:26;;;;;;;14.93;4.35;;;;;;;31.89;22.10;95148.59;4999903;28;20413;-78
2022/05/17 07:39:52;;;;;;;10.93;4.75;;;;;;;31.67;21.99;95150.91;5066279;23;20033;-78
2022/05/17 07:42:23;;;;;;;13.57;5.50;;;;;;;31.48;22.31;95148.25;5047878;28;20434;-77
2022/05/17 07:44:49;;;;;;;9.32;4.45;;;;;;;31.36;23.35;95153.78;5045390;28;20447;-77
2022/05/17 07:47:14;;;;;;;10.75;3.50;;;;;;;31.36;23.53;95143.03;5042462;28;20033;-79
2022/05/17 07:49:40;;;;;;;11.80;4.15;;;;;;;31.35;23.36;95144.97;5043439;28;20037;-77
2022/05/17 07:52:06;;;;;;;23.40;3.95;;;;;;;31.35;23.53;95144.19;5045803;28;20017;-78
2022/05/17 07:54:31;;;;;;;25.38;4.82;;;;;;;31.04;23.30;95139.72;5025444;28;20029;-78
2022/05/17 07:56:57;;;;;;;48.08;5.95;;;;;;;30.76;23.73;95134.59;5043398;28;20025;-78
2022/05/17 07:59:22;;;;;;;20.33;5.25;;;;;;;30.54;24.14;95136.00;5009406;28;20037;-79
2022/05/17 08:01:48;;;;;;;11.55;5.00;;;;;;;30.37;24.64;95129.13;5066576;28;20103;-79
2022/05/17 08:04:13;;;;;;;19.13;4.90;;;;;;;30.17;24.22;95128.31;5042604;28;20029;-78
2022/05/17 08:06:39;;;;;;;26.42;5.70;;;;;;;29.98;24.29;95128.22;5023736;28;20041;-78
2022/05/17 08:09:04;;;;;;;27.25;5.22;;;;;;;29.95;24.31;95128.13;5047192;28;20037;-77
2022/05/17 08:11:40;;;;;;;19.50;4.57;;;;;;;29.81;24.61;95121.31;5042769;28;20493;-78
2022/05/17 08:14:05;;;;;;;16.98;4.50;;;;;;;29.83;25.73;95127.09;5042670;28;20029;-77
2022/05/17 08:16:31;;;;;;;12.45;4.80;;;;;;;29.88;24.21;95115.31;5042352;28;20095;-78
2022/05/17 08:18:56;;;;;;;10.85;4.30;;;;;;;29.88;25.06;95116.09;5040244;28;20060;-78
2022/05/17 08:21:22;;;;;;;12.63;4.60;;;;;;;29.94;26.09;95110.47;5040887;28;20425;-78
2022/05/17 08:23:47;;;;;;;11.57;4.25;;;;;;;29.89;25.02;95109.59;5042535;28;20025;-78
2022/05/17 08:28:57;;;;;;;19.13;4.72;;;;;;;29.77;24.49;95104.34;5040835;28;20888;-78
2022/05/17 08:31:23;;;;;;;12.18;4.30;;;;;;;29.69;24.85;95107.97;5038930;28;20017;-78
2022/05/17 08:33:49;;;;;;;18.25;4.30;;;;;;;29.66;24.47;95106.00;5040010;28;20052;-79
2022/05/17 08:36:14;;;;;;;22.25;5.15;;;;;;;29.65;25.57;95103.66;5038799;28;20523;-77
2022/05/17 08:38:42;;;;;;;8.68;3.72;;;;;;;29.66;26.03;95108.69;5041858;28;20029;-78
2022/05/17 08:41:11;;;;;;;7.88;4.35;;;;;;;29.58;25.67;95107.72;5044023;28;20045;-77
2022/05/17 08:43:48;;;;;;;12.18;4.20;;;;;;;29.55;25.32;95103.06;5045435;28;20029;-77
2022/05/17 08:46:30;;;;;;;13.80;3.67;;;;;;;29.46;24.48;95102.47;5066542;28;20527;-78
2022/05/17 08:49:13;;;;;;;10.50;3.88;;;;;;;29.36;24.71;95096.78;5054939;28;20120;-78
2022/05/17 08:51:51;;;;;;;14.93;3.42;;;;;;;29.32;25.05;95101.28;5041527;28;20049;-78
2022/05/17 08:54:18;;;;;;;16.65;3.80;;;;;;;29.25;24.19;95099.97;5039829;28;20033;-78
2022/05/17 08:56:50;;;;;;;10.65;4.18;;;;;;;29.23;27.17;95099.53;5006082;28;20033;-78
2022/05/17 08:59:19;;;;;;;9.73;3.60;;;;;;;29.21;25.61;95101.00;5040419;28;20162;-77
2022/05/17 09:01:51;;;;;;;7.05;3.78;;;;;;;29.19;25.46;95093.31;5021548;28;20025;-78
2022/05/17 09:04:27;;;;;;;2.90;2.58;;;;;;;29.09;23.98;95091.13;5039657;28;20037;-77
2022/05/17 09:07:05;;;;;;;8.50;3.00;;;;;;;29.07;25.59;95085.34;5046484;28;20033;-78
2022/05/17 09:09:36;;;;;;;5.28;2.70;;;;;;;29.09;24.06;95080.41;5041612;28;20046;-78
2022/05/17 09:12:29;;;;;;;10.18;3.13;;;;;;;29.05;24.35;95084.13;5041413;28;20728;-79
2022/05/17 09:14:56;;;;;;;9.50;2.92;;;;;;;29.01;24.29;95081.34;5042018;28;20396;-79
2022/05/17 09:17:24;;;;;;;12.70;3.42;;;;;;;28.85;23.61;95083.19;5024579;28;20485;-78
2022/05/17 09:19:50;;;;;;;7.32;2.78;;;;;;;28.70;23.63;95080.13;5042536;28;20572;-78
2022/05/17 09:22:16;;;;;;;18.38;3.25;;;;;;;28.53;23.17;95076.94;5038590;28;20044;-78
2022/05/17 09:24:45;;;;;;;5.90;2.97;;;;;;;28.47;24.00;95076.38;5039545;28;20100;-78
2022/05/17 09:27:21;;;;;;;5.55;2.75;;;;;;;28.46;24.75;95066.81;5041587;28;20044;-78
2022/05/17 09:29:46;;;;;;;3.75;2.60;;;;;;;28.51;24.46;95066.59;5047977;28;20038;-78
2022/05/17 09:32:13;;;;;;;8.98;2.78;;;;;;;28.54;25.93;95068.56;5038905;28;20029;-78
2022/05/17 09:34:41;;;;;;;4.38;2.75;;;;;;;28.60;26.73;95066.44;5021014;28;20116;-76
2022/05/17 09:37:16;;;;;;;18.17;4.20;;;;;;;28.61;25.97;95060.75;5029460;28;20029;-78
2022/05/17 09:39:46;;;;;;;5.68;3.22;;;;;;;28.51;22.31;95053.22;5039141;28;20069;-77
2022/05/17 09:42:21;;;;;;;3.58;2.47;;;;;;;28.32;23.91;95048.47;5021840;28;20084;-77
2022/05/17 09:44:47;;;;;;;5.30;2.33;;;;;;;28.19;23.76;95040.78;5063438;28;20060;-77
2022/05/17 09:47:25;;;;;;;9.75;2.90;;;;;;;28.14;25.95;95041.78;5021705;28;20037;-77
2022/05/17 09:52:35;;;;;;;6.00;2.60;;;;;;;28.13;26.31;95036.78;5025404;28;20052;-77
2022/05/17 09:55:12;;;;;;;3.50;2.40;;;;;;;28.15;24.36;95037.22;5041366;28;20063;-78
2022/05/17 09:57:58;;;;;;;7.80;2.88;;;;;;;28.17;26.16;95033.09;5039097;28;20508;-78
2022/05/17 10:00:42;;;;;;;9.18;2.60;;;;;;;28.13;26.04;95034.09;5046980;28;20069;-77
2022/05/17 10:03:36;;;;;;;8.60;2.33;;;;;;;28.14;25.17;95027.63;5062542;28;20087;-77
2022/05/17 10:06:07;;;;;;;13.38;2.28;;;;;;;28.13;23.14;95031.44;5064266;28;20052;-78
2022/05/17 10:08:57;;;;;;;5.60;2.10;;;;;;;28.14;24.00;95028.41;5021769;28;20080;-78
2022/05/17 10:11:24;;;;;;;3.35;1.58;;;;;;;28.10;20.44;95020.28;5039505;28;20090;-77
2022/05/17 10:13:57;;;;;;;5.80;1.90;;;;;;;28.07;22.36;95012.19;5004834;28;20051;-78
2022/05/17 10:16:37;;;;;;;8.95;2.95;;;;;;;28.02;28.41;95015.88;5020683;28;20032;-77
2022/05/17 10:19:20;;;;;;;3.22;2.38;;;;;;;27.97;27.76;95012.63;5038680;28;20045;-77
2022/05/17 10:21:56;;;;;;;6.45;2.30;;;;;;;27.90;23.86;95015.88;5043370;28;20047;-78
2022/05/17 10:24:54;;;;;;;7.18;2.05;;;;;;;27.87;23.72;95016.56;5045921;28;20065;-78
2022/05/17 10:27:37;;;;;;;17.48;2.53;;;;;;;27.81;22.79;95004.53;5038026;28;20087;-77
2022/05/17 10:30:17;;;;;;;3.22;2.53;;;;;;;27.78;24.72;95000.63;5038285;28;20097;-78
2022/05/17 10:32:52;;;;;;;7.97;2.33;;;;;;;27.78;23.73;94999.84;5019347;28;20056;-78
2022/05/17 10:35:27;;;;;;;5.53;2.40;;;;;;;27.78;26.19;94997.19;5022678;28;20075;-77
2022/05/17 10:38:02;;;;;;;2.90;2.03;;;;;;;27.79;25.28;94993.41;5037860;28;20041;-77
2022/05/17 10:40:30;;;;;;;5.43;1.98;;;;;;;27.69;25.89;94986.63;5029396;28;20530;-78
2022/05/17 10:42:56;;;;;;;4.93;2.53;;;;;;;27.63;23.38;94992.50;5006552;28;20491;-77
2022/05/17 10:45:32;;;;;;;2.33;2.08;;;;;;;27.44;22.60;94985.84;5065531;28;20029;-77
2022/05/17 10:48:21;;;;;;;7.47;2.35;;;;;;;26.98;23.28;94980.88;5022390;28;20772;-77
2022/05/17 10:51:02;;;;;;;4.07;1.90;;;;;;;27.01;24.47;94974.91;5023133;28;20044;-77
2022/05/17 10:53:39;;;;;;;2.28;2.00;;;;;;;26.79;24.67;94974.16;5037554;28;20118;-77
2022/05/17 10:56:40;;;;;;;5.22;1.88;;;;;;;26.89;24.72;94973.75;5037968;28;20068;-77
2022/05/17 10:59:32;;;;;;;6.50;2.20;;;;;;;26.89;23.84;94971.09;5047913;28;20576;-76
2022/05/17 11:02:19;;;;;;;4.72;2.28;;;;;;;26.63;24.04;94958.00;5038594;28;20041;-78
2022/05/17 11:05:02;;;;;;;3.78;1.92;;;;;;;26.69;23.78;94955.94;5041011;28;20045;-77
2022/05/17 11:07:27;;;;;;;7.40;2.13;;;;;;;26.50;25.20;94958.31;5052036;28;20685;-77
2022/05/17 11:09:55;;;;;;;4.68;2.20;;;;;;;26.53;26.26;94945.13;5044540;28;20095;-77
2022/05/17 11:12:23;;;;;;;6.32;2.22;;;;;;;26.62;27.26;94950.34;5066133;28;20041;-78
2022/05/17 11:15:03;;;;;;;4.82;2.10;;;;;;;26.70;28.06;94946.81;5049844;28;20033;-77
2022/05/17 11:17:40;;;;;;;4.18;2.08;;;;;;;26.79;28.18;94939.47;5041944;28;20386;-77
2022/05/17 11:20:11;;;;;;;4.63;2.22;;;;;;;26.82;25.17;94936.16;5040389;28;20385;-78
2022/05/17 11:22:46;;;;;;;5.05;2.35;;;;;;;26.88;26.84;94926.84;5041605;28;20151;-77
2022/05/17 11:25:40;;;;;;;6.82;2.33;;;;;;;26.92;26.89;94927.72;5066712;28;20057;-78
2022/05/17 11:28:12;;;;;;;2.40;2.17;;;;;;;27.00;28.11;94922.59;5051884;28;20044;-78
2022/05/17 11:31:10;;;;;;;4.43;2.38;;;;;;;27.02;26.72;94923.09;5042059;28;20028;-77
2022/05/17 11:33:38;;;;;;;5.90;2.35;;;;;;;27.01;27.93;94924.19;5050908;28;20033;-78
2022/05/17 11:36:04;;;;;;;7.20;2.58;;;;;;;27.06;29.49;94926.66;5025054;28;20124;-77
2022/05/17 11:38:33;;;;;;;3.05;2.33;;;;;;;27.10;28.70;94922.19;5040077;28;20577;-77
2022/05/17 11:41:21;;;;;;;5.40;2.90;;;;;;;27.12;27.21;94909.28;5041505;28;20033;-77
2022/05/17 11:43:48;;;;;;;2.55;1.98;;;;;;;27.14;28.65;94909.72;5023675;28;20025;-76
2022/05/17 11:46:28;;;;;;;5.30;2.13;;;;;;;27.16;25.98;94908.28;5040542;28;20037;-77
2022/05/17 11:49:01;;;;;;;8.43;2.47;;;;;;;27.17;28.98;94904.53;5041554;28;20029;-76
2022/05/17 11:51:32;;;;;;;3.33;2.00;;;;;;;27.19;27.83;94893.50;5031669;28;20083;-76